createdAt,value
2018-06-20T00:00:16.295Z,20.30
2018-06-20T00:05:11.777Z,20.20
2018-06-20T00:07:39.618Z,20.20
2018-06-20T00:10:07.400Z,20.20
2018-06-20T00:12:35.137Z,19.90
2018-06-20T00:17:30.727Z,19.90
2018-06-20T00:19:58.440Z,19.80
2018-06-20T00:22:26.378Z,20.00
2018-06-20T00:24:54.193Z,20.20
2018-06-20T00:27:22.079Z,19.80
2018-06-20T00:29:50.092Z,19.90
2018-06-20T00:32:18.034Z,19.80
2018-06-20T00:34:46.212Z,20.10
2018-06-20T00:37:13.995Z,20.10
2018-06-20T00:39:41.864Z,20.00
2018-06-20T00:42:09.647Z,20.20
2018-06-20T00:47:05.100Z,20.00
2018-06-20T00:49:32.835Z,19.70
2018-06-20T00:52:00.688Z,19.60
2018-06-20T00:56:56.096Z,19.80
2018-06-20T00:59:23.960Z,19.70
2018-06-20T01:01:52.160Z,19.80
2018-06-20T01:04:19.915Z,19.80
2018-06-20T01:06:48.063Z,19.70
2018-06-20T01:09:15.931Z,20.10
2018-06-20T01:11:43.710Z,19.90
2018-06-20T01:14:11.552Z,19.80
2018-06-20T01:16:39.804Z,19.70
2018-06-20T01:19:07.620Z,19.70
2018-06-20T01:21:35.392Z,19.80
2018-06-20T01:24:03.188Z,19.80
2018-06-20T01:26:30.899Z,19.90
2018-06-20T01:28:58.616Z,19.90
2018-06-20T01:31:26.503Z,19.90
2018-06-20T01:33:54.208Z,19.70
2018-06-20T01:36:21.961Z,19.70
2018-06-20T01:41:17.356Z,19.80
2018-06-20T01:43:45.050Z,20.10
2018-06-20T01:46:12.871Z,20.10
2018-06-20T01:51:08.341Z,19.80
2018-06-20T01:53:36.071Z,19.90
2018-06-20T01:56:03.868Z,19.60
2018-06-20T01:58:31.557Z,19.70
2018-06-20T02:00:59.625Z,19.60
2018-06-20T02:03:27.358Z,19.70
2018-06-20T02:05:55.496Z,19.60
2018-06-20T02:08:23.312Z,19.70
2018-06-20T02:10:51.096Z,19.90
2018-06-20T02:13:19.121Z,19.90
2018-06-20T02:15:47.140Z,19.80
2018-06-20T02:18:15.243Z,19.70
2018-06-20T02:20:43.078Z,19.60
2018-06-20T02:23:10.812Z,19.90
2018-06-20T02:25:38.595Z,19.90
2018-06-20T02:28:06.475Z,19.70
2018-06-20T02:30:34.273Z,20.00
2018-06-20T02:33:02.008Z,19.60
2018-06-20T02:37:57.452Z,19.60
2018-06-20T02:42:52.759Z,19.90
2018-06-20T02:45:20.500Z,19.80
2018-06-20T02:47:48.181Z,19.70
2018-06-20T02:50:15.888Z,19.80
2018-06-20T02:52:43.607Z,19.80
2018-06-20T02:55:11.308Z,19.60
2018-06-20T02:57:45.839Z,19.70
2018-06-20T03:00:13.564Z,19.70
2018-06-20T03:02:41.299Z,19.80
2018-06-20T03:05:09.008Z,19.80
2018-06-20T03:07:36.712Z,19.70
2018-06-20T03:10:04.516Z,19.80
2018-06-20T03:12:32.248Z,19.90
2018-06-20T03:14:59.966Z,19.90
2018-06-20T03:17:27.676Z,19.60
2018-06-20T03:19:55.404Z,19.80
2018-06-20T03:22:23.095Z,19.80
2018-06-20T03:24:50.803Z,19.80
2018-06-20T03:27:18.587Z,19.90
2018-06-20T03:29:47.108Z,19.70
2018-06-20T03:32:14.839Z,19.50
2018-06-20T03:34:42.592Z,19.80
2018-06-20T03:39:37.861Z,19.60
2018-06-20T03:42:05.585Z,19.60
2018-06-20T03:47:00.883Z,19.40
2018-06-20T03:49:28.579Z,19.80
2018-06-20T03:51:56.291Z,19.60
2018-06-20T03:54:24.044Z,19.70
2018-06-20T03:56:51.752Z,19.90
2018-06-20T03:59:19.499Z,19.80
2018-06-20T04:01:47.208Z,19.70
2018-06-20T04:04:14.948Z,19.90
2018-06-20T04:09:12.135Z,19.90
2018-06-20T04:11:40.171Z,19.70
2018-06-20T04:14:07.908Z,19.90
2018-06-20T04:16:35.649Z,19.60
2018-06-20T04:19:03.464Z,20.10
2018-06-20T04:21:31.164Z,20.10
2018-06-20T04:23:58.891Z,20.20
2018-06-20T04:26:26.594Z,20.10
2018-06-20T04:28:54.336Z,20.20
2018-06-20T04:36:17.220Z,20.30
2018-06-20T04:43:40.180Z,20.10
2018-06-20T04:46:07.860Z,20.30
2018-06-20T04:51:03.195Z,20.00
2018-06-20T04:55:58.544Z,20.30
2018-06-20T04:58:26.251Z,20.30
2018-06-20T05:00:54.040Z,20.20
2018-06-20T05:03:21.719Z,20.50
2018-06-20T05:08:17.051Z,20.60
2018-06-20T05:10:44.769Z,20.30
2018-06-20T05:13:12.447Z,20.40
2018-06-20T05:18:07.783Z,20.40
2018-06-20T05:23:03.090Z,21.10
2018-06-20T05:25:30.887Z,20.80
2018-06-20T05:27:58.592Z,20.70
2018-06-20T05:30:26.292Z,20.90
2018-06-20T05:32:54.075Z,21.00
2018-06-20T05:35:21.730Z,21.20
2018-06-20T05:40:17.259Z,21.20
2018-06-20T05:42:45.001Z,21.30
2018-06-20T05:45:12.713Z,21.10
2018-06-20T05:47:40.416Z,21.40
2018-06-20T05:50:08.149Z,21.40
2018-06-20T05:52:35.875Z,21.30
2018-06-20T05:57:31.249Z,21.50
2018-06-20T05:59:58.984Z,21.40
2018-06-20T06:02:26.711Z,21.80
2018-06-20T06:04:54.463Z,21.60
2018-06-20T06:07:22.160Z,22.10
2018-06-20T06:12:17.525Z,21.70
2018-06-20T06:14:45.247Z,21.90
2018-06-20T06:19:41.260Z,21.80
2018-06-20T06:22:08.959Z,22.20
2018-06-20T06:27:04.275Z,22.60
2018-06-20T06:31:59.718Z,22.20
2018-06-20T06:34:27.483Z,22.40
2018-06-20T06:36:55.208Z,22.30
2018-06-20T06:39:22.943Z,22.40
2018-06-20T06:41:50.662Z,22.30
2018-06-20T06:46:45.981Z,22.00
2018-06-20T06:51:41.313Z,22.00
2018-06-20T06:54:09.020Z,22.20
2018-06-20T06:56:36.735Z,22.10
2018-06-20T07:01:32.032Z,21.90
2018-06-20T07:03:59.721Z,22.30
2018-06-20T07:08:55.083Z,22.40
2018-06-20T07:11:22.831Z,22.40
2018-06-20T07:13:50.584Z,22.60
2018-06-20T07:16:18.316Z,22.30
2018-06-20T07:18:46.012Z,22.30
2018-06-20T07:21:13.743Z,22.40
2018-06-20T07:23:41.512Z,22.60
2018-06-20T07:26:09.259Z,22.40
2018-06-20T07:28:36.959Z,22.30
2018-06-20T07:33:32.255Z,23.10
2018-06-20T07:36:00.026Z,23.50
2018-06-20T07:38:27.672Z,23.40
2018-06-20T07:40:55.373Z,23.30
2018-06-20T07:45:50.712Z,23.60
2018-06-20T07:48:18.442Z,23.70
2018-06-20T07:50:46.222Z,23.70
2018-06-20T07:53:13.870Z,24.20
2018-06-20T07:55:41.627Z,24.10
2018-06-20T07:58:09.527Z,24.50
2018-06-20T08:03:17.259Z,23.90
2018-06-20T08:05:50.923Z,24.20
2018-06-20T08:08:24.288Z,24.20
2018-06-20T08:10:57.714Z,24.80
2018-06-20T08:13:31.052Z,24.40
2018-06-20T08:16:04.412Z,24.50
2018-06-20T08:18:37.684Z,24.20
2018-06-20T08:21:05.636Z,24.40
2018-06-20T08:23:33.352Z,24.10
2018-06-20T08:26:01.086Z,24.70
2018-06-20T08:28:28.862Z,24.50
2018-06-20T08:30:56.599Z,25.10
2018-06-20T08:33:24.339Z,24.80
2018-06-20T08:35:52.079Z,25.20
2018-06-20T08:38:19.864Z,25.20
2018-06-20T08:40:47.817Z,24.80
2018-06-20T08:43:15.551Z,24.70
2018-06-20T08:45:43.647Z,24.50
2018-06-20T08:50:39.059Z,24.30
2018-06-20T08:53:07.057Z,25.70
2018-06-20T08:55:34.849Z,27.70
2018-06-20T08:58:02.580Z,29.90
2018-06-20T09:00:36.012Z,31.90
2018-06-20T09:03:03.817Z,32.10
2018-06-20T09:05:37.139Z,30.90
2018-06-20T09:08:10.517Z,29.20
2018-06-20T09:10:43.867Z,28.10
2018-06-20T09:13:17.527Z,27.70
2018-06-20T09:20:51.440Z,25.40
2018-06-20T09:23:19.518Z,25.10
2018-06-20T09:25:47.285Z,25.20
2018-06-20T09:28:15.036Z,25.10
2018-06-20T09:30:42.735Z,25.70
2018-06-20T09:35:38.499Z,28.70
2018-06-20T09:38:06.277Z,29.10
2018-06-20T09:40:33.997Z,28.80
2018-06-20T09:45:29.260Z,26.60
2018-06-20T09:47:56.986Z,25.90
2018-06-20T09:50:30.461Z,26.70
2018-06-20T09:52:58.167Z,28.10
2018-06-20T09:55:25.880Z,27.40
2018-06-20T09:57:53.666Z,26.80
2018-06-20T10:00:27.073Z,26.70
2018-06-20T10:03:00.470Z,26.30
2018-06-20T10:08:06.983Z,27.70
2018-06-20T10:10:40.480Z,28.40
2018-06-20T10:13:17.802Z,28.00
2018-06-20T10:15:45.572Z,27.50
2018-06-20T10:18:13.331Z,27.10
2018-06-20T10:20:41.015Z,26.70
2018-06-20T10:23:08.792Z,26.70
2018-06-20T10:28:04.201Z,30.30
2018-06-20T10:30:32.121Z,31.80
2018-06-20T10:32:59.841Z,32.00
2018-06-20T10:35:27.576Z,33.00
2018-06-20T10:37:55.332Z,33.30
2018-06-20T10:40:23.099Z,33.80
2018-06-20T10:42:50.832Z,32.90
2018-06-20T10:45:24.232Z,32.60
2018-06-20T10:47:52.020Z,32.50
2018-06-20T10:50:20.049Z,31.90
2018-06-20T10:52:47.818Z,32.20
2018-06-20T10:57:50.022Z,32.20
2018-06-20T11:00:23.335Z,32.50
2018-06-20T11:02:56.804Z,33.10
2018-06-20T11:05:30.433Z,33.60
2018-06-20T11:09:02.675Z,34.20
2018-06-20T11:11:36.072Z,32.70
2018-06-20T11:14:03.864Z,31.70
2018-06-20T11:16:32.380Z,31.50
2018-06-20T11:19:00.156Z,30.50
2018-06-20T11:23:55.582Z,31.50
2018-06-20T11:26:23.336Z,33.60
2018-06-20T11:28:51.092Z,33.90
2018-06-20T11:31:18.877Z,34.30
2018-06-20T11:33:46.761Z,33.40
2018-06-20T11:36:14.594Z,33.40
2018-06-20T11:38:42.292Z,33.50
2018-06-20T11:41:10.031Z,33.80
2018-06-20T11:43:37.746Z,33.60
2018-06-20T11:46:11.136Z,34.10
2018-06-20T11:48:38.874Z,34.90
2018-06-20T11:53:34.520Z,32.60
2018-06-20T12:01:08.640Z,33.60
2018-06-20T12:03:42.062Z,32.60
2018-06-20T12:08:48.759Z,32.20
2018-06-20T12:11:22.106Z,32.10
2018-06-20T12:13:55.442Z,33.20
2018-06-20T12:18:57.224Z,35.00
2018-06-20T12:21:30.653Z,34.00
2018-06-20T12:24:04.912Z,32.30
2018-06-20T12:26:38.271Z,31.00
2018-06-20T12:29:11.706Z,30.40
2018-06-20T12:31:44.954Z,30.30
2018-06-20T12:34:18.477Z,31.20
2018-06-20T12:36:51.937Z,31.70
2018-06-20T12:39:19.067Z,32.10
2018-06-20T12:41:52.392Z,32.70
2018-06-20T12:44:25.700Z,31.70
2018-06-20T12:47:13.027Z,32.00
2018-06-20T12:49:46.352Z,33.00
2018-06-20T12:52:15.283Z,34.00
2018-06-20T12:54:43.671Z,35.10
2018-06-20T12:57:12.309Z,35.20
2018-06-20T12:59:40.029Z,35.80
2018-06-20T13:02:07.776Z,35.50
2018-06-20T13:04:35.520Z,36.00
2018-06-20T13:09:30.871Z,35.00
2018-06-20T13:11:58.590Z,33.50
2018-06-20T13:14:26.500Z,33.20
2018-06-20T13:16:54.264Z,34.00
2018-06-20T13:19:22.019Z,34.10
2018-06-20T13:21:49.751Z,32.70
2018-06-20T13:24:17.546Z,32.20
2018-06-20T13:26:45.263Z,32.80
2018-06-20T13:29:13.961Z,32.60
2018-06-20T13:31:47.365Z,32.20
2018-06-20T13:34:20.816Z,32.70
2018-06-20T13:36:54.147Z,33.10
2018-06-20T13:39:27.421Z,33.30
2018-06-20T13:42:00.359Z,33.30
2018-06-20T13:44:28.686Z,33.70
2018-06-20T13:47:01.892Z,33.90
2018-06-20T13:49:29.672Z,34.00
2018-06-20T13:51:57.380Z,33.40
2018-06-20T13:54:25.103Z,33.20
2018-06-20T13:56:53.420Z,32.90
2018-06-20T13:59:21.205Z,32.70
2018-06-20T14:01:48.915Z,32.40
2018-06-20T14:06:44.284Z,32.30
2018-06-20T14:09:12.325Z,32.70
2018-06-20T14:14:08.220Z,32.40
2018-06-20T14:16:35.992Z,33.00
2018-06-20T14:21:40.744Z,33.60
2018-06-20T14:24:09.460Z,33.00
2018-06-20T14:29:06.540Z,32.80
2018-06-20T14:31:40.149Z,32.40
2018-06-20T14:34:13.377Z,31.70
2018-06-20T14:36:46.861Z,32.10
2018-06-20T14:39:20.239Z,32.80
2018-06-20T14:41:53.552Z,32.40
2018-06-20T14:44:21.256Z,31.60
2018-06-20T14:46:48.995Z,31.20
2018-06-20T14:49:16.743Z,31.60
2018-06-20T14:51:44.492Z,31.70
2018-06-20T14:54:12.307Z,31.80
2018-06-20T14:56:40.128Z,32.00
2018-06-20T14:59:07.862Z,32.40
2018-06-20T15:01:35.668Z,32.80
2018-06-20T15:04:03.550Z,32.30
2018-06-20T15:06:31.314Z,32.70
2018-06-20T15:08:59.104Z,32.40
2018-06-20T15:11:26.867Z,32.00
2018-06-20T15:16:27.926Z,32.10
2018-06-20T15:21:23.280Z,32.10
2018-06-20T15:28:57.631Z,31.00
2018-06-20T15:31:31.023Z,31.40
2018-06-20T15:36:38.066Z,31.00
2018-06-20T15:39:07.162Z,30.80
2018-06-20T15:41:34.967Z,30.50
2018-06-20T15:44:03.208Z,30.30
2018-06-20T15:46:30.952Z,30.20
2018-06-20T15:48:58.731Z,29.90
2018-06-20T15:51:26.541Z,29.90
2018-06-20T15:53:54.294Z,29.80
2018-06-20T15:56:22.361Z,29.80
2018-06-20T15:58:50.515Z,30.10
2018-06-20T16:01:18.247Z,30.20
2018-06-20T16:03:46.038Z,29.80
2018-06-20T16:06:13.819Z,30.00
2018-06-20T16:08:47.235Z,30.20
2018-06-20T16:11:15.032Z,30.20
2018-06-20T16:13:42.784Z,29.80
2018-06-20T16:16:10.784Z,29.70
2018-06-20T16:18:42.583Z,30.10
2018-06-20T16:21:15.997Z,29.90
2018-06-20T16:26:22.496Z,29.50
2018-06-20T16:28:55.808Z,29.90
2018-06-20T16:31:23.864Z,29.80
2018-06-20T16:33:51.722Z,29.70
2018-06-20T16:38:47.032Z,29.70
2018-06-20T16:41:14.863Z,29.60
2018-06-20T16:43:42.698Z,29.50
2018-06-20T16:46:10.483Z,29.50
2018-06-20T16:48:38.275Z,29.60
2018-06-20T16:51:06.008Z,29.40
2018-06-20T16:53:33.815Z,29.40
2018-06-20T16:56:01.684Z,29.40
2018-06-20T16:58:29.404Z,29.10
2018-06-20T17:01:02.819Z,28.70
2018-06-20T17:03:30.446Z,29.10
2018-06-20T17:08:26.167Z,28.90
2018-06-20T17:13:27.201Z,28.40
2018-06-20T17:16:00.647Z,28.20
2018-06-20T17:18:34.160Z,28.40
2018-06-20T17:21:08.059Z,28.90
2018-06-20T17:23:41.464Z,28.50
2018-06-20T17:26:09.208Z,28.60
2018-06-20T17:28:36.980Z,28.30
2018-06-20T17:31:04.759Z,28.40
2018-06-20T17:33:32.519Z,28.10
2018-06-20T17:36:00.476Z,28.20
2018-06-20T17:38:28.387Z,28.30
2018-06-20T17:40:56.240Z,28.10
2018-06-20T17:43:24.012Z,28.00
2018-06-20T17:45:51.745Z,28.00
2018-06-20T17:48:19.523Z,28.20
2018-06-20T17:50:47.271Z,27.80
2018-06-20T17:53:15.107Z,27.50
2018-06-20T18:00:43.700Z,27.90
2018-06-20T18:03:11.544Z,27.90
2018-06-20T18:05:44.881Z,27.70
2018-06-20T18:10:51.696Z,27.60
2018-06-20T18:13:24.156Z,27.70
2018-06-20T18:15:57.592Z,27.70
2018-06-20T18:18:25.539Z,27.70
2018-06-20T18:20:53.388Z,27.50
2018-06-20T18:25:48.844Z,27.60
2018-06-20T18:28:16.829Z,27.50
2018-06-20T18:33:12.500Z,27.00
2018-06-20T18:35:40.492Z,27.40
2018-06-20T18:38:08.284Z,27.10
2018-06-20T18:40:36.112Z,27.00
2018-06-20T18:43:03.883Z,27.00
2018-06-20T18:45:31.734Z,26.90
2018-06-20T18:48:05.119Z,26.80
2018-06-20T18:50:32.931Z,26.80
2018-06-20T18:53:00.906Z,26.70
2018-06-20T18:55:28.711Z,26.60
2018-06-20T18:59:05.332Z,26.80
2018-06-20T19:01:38.749Z,26.60
2018-06-20T19:04:12.260Z,26.10
2018-06-20T19:06:45.666Z,26.30
2018-06-20T19:09:15.782Z,26.50
2018-06-20T19:11:44.026Z,26.10
2018-06-20T19:14:11.892Z,26.30
2018-06-20T19:19:07.309Z,26.00
2018-06-20T19:21:35.599Z,26.00
2018-06-20T19:26:31.302Z,25.90
2018-06-20T19:28:59.339Z,25.90
2018-06-20T19:31:27.155Z,25.70
2018-06-20T19:33:55.009Z,25.60
2018-06-20T19:36:22.797Z,25.40
2018-06-20T19:38:50.623Z,25.70
2018-06-20T19:41:18.489Z,25.60
2018-06-20T19:43:51.831Z,25.40
2018-06-20T19:46:19.588Z,25.20
2018-06-20T19:48:47.322Z,25.10
2018-06-20T19:51:15.164Z,25.60
2018-06-20T19:53:44.158Z,25.10
2018-06-20T19:56:12.057Z,25.00
2018-06-20T19:58:39.839Z,25.00
2018-06-20T20:01:07.568Z,24.90
2018-06-20T20:03:35.427Z,25.00
2018-06-20T20:06:03.200Z,24.80
2018-06-20T20:08:30.995Z,24.60
2018-06-20T20:10:58.739Z,24.30
2018-06-20T20:13:26.522Z,24.50
2018-06-20T20:15:54.279Z,24.70
2018-06-20T20:18:22.070Z,24.20
2018-06-20T20:23:18.250Z,24.60
2018-06-20T20:25:46.067Z,24.30
2018-06-20T20:28:13.896Z,24.20
2018-06-20T20:30:41.682Z,24.00
2018-06-20T20:33:09.463Z,23.90
2018-06-20T20:35:37.260Z,24.20
2018-06-20T20:38:05.069Z,24.50
2018-06-20T20:40:32.816Z,24.10
2018-06-20T20:43:00.657Z,24.20
2018-06-20T20:45:28.441Z,23.90
2018-06-20T20:47:56.190Z,24.00
2018-06-20T20:50:24.180Z,24.20
2018-06-20T20:52:51.996Z,24.30
2018-06-20T20:55:19.766Z,24.10
2018-06-20T21:00:15.216Z,24.00
2018-06-20T21:02:42.956Z,23.90
2018-06-20T21:07:38.348Z,23.90
2018-06-20T21:10:06.095Z,24.00
2018-06-20T21:12:33.907Z,23.70
2018-06-20T21:15:01.707Z,23.30
2018-06-20T21:17:29.488Z,23.40
2018-06-20T21:19:57.242Z,23.40
2018-06-20T21:22:24.995Z,23.50
2018-06-20T21:24:52.781Z,23.10
2018-06-20T21:27:20.601Z,23.10
2018-06-20T21:32:15.956Z,23.10
2018-06-20T21:34:43.737Z,23.10
2018-06-20T21:37:11.520Z,22.60
2018-06-20T21:39:39.332Z,23.10
2018-06-20T21:44:34.702Z,22.90
2018-06-20T21:47:02.561Z,22.90
2018-06-20T21:49:30.283Z,23.10
2018-06-20T21:54:25.652Z,22.80
2018-06-20T21:56:53.371Z,23.10
2018-06-20T22:01:48.752Z,23.00
2018-06-20T22:04:16.499Z,23.00
2018-06-20T22:06:44.232Z,23.00
2018-06-20T22:11:41.523Z,23.10
2018-06-20T22:14:09.487Z,22.80
2018-06-20T22:16:37.656Z,22.50
2018-06-20T22:19:05.522Z,23.00
2018-06-20T22:21:33.380Z,23.00
2018-06-20T22:24:01.153Z,23.20
2018-06-20T22:26:29.132Z,22.90
2018-06-20T22:28:56.884Z,22.80
2018-06-20T22:31:24.648Z,22.70
2018-06-20T22:33:52.552Z,22.60
2018-06-20T22:36:20.367Z,22.60
2018-06-20T22:43:43.442Z,22.30
2018-06-20T22:46:11.309Z,22.40
2018-06-20T22:48:39.084Z,22.40
2018-06-20T22:51:06.903Z,22.10
2018-06-20T22:53:34.635Z,22.40
2018-06-20T22:56:02.444Z,22.30
2018-06-20T22:58:30.172Z,22.30
2018-06-20T23:00:57.912Z,22.10
2018-06-20T23:03:25.635Z,22.30
2018-06-20T23:05:53.564Z,22.10
2018-06-20T23:08:21.320Z,22.10
2018-06-20T23:13:16.786Z,22.20
2018-06-20T23:15:44.520Z,21.80
2018-06-20T23:20:39.920Z,21.50
2018-06-20T23:28:02.965Z,21.70
2018-06-20T23:30:30.759Z,21.80
2018-06-20T23:32:58.527Z,21.70
2018-06-20T23:35:26.260Z,21.80
2018-06-20T23:37:54.025Z,21.50
2018-06-20T23:40:21.730Z,21.60
2018-06-20T23:45:17.149Z,21.70
2018-06-20T23:47:45.057Z,21.70
2018-06-20T23:50:12.795Z,21.70
2018-06-20T23:52:40.655Z,21.80
2018-06-20T23:55:08.377Z,21.90
2018-06-20T23:57:36.186Z,21.70
